createdAt,value
2023-08-14T00:00:40.602Z,0.00
2023-08-14T00:01:40.667Z,0.00
2023-08-14T00:02:40.625Z,0.00
2023-08-14T00:03:40.603Z,0.00
2023-08-14T00:04:40.575Z,0.00
2023-08-14T00:05:40.554Z,0.00
2023-08-14T00:06:40.577Z,0.00
2023-08-14T00:07:40.515Z,0.00
2023-08-14T00:08:40.500Z,0.00
2023-08-14T00:09:40.488Z,0.00
2023-08-14T00:10:40.482Z,0.00
2023-08-14T00:11:40.475Z,0.00
2023-08-14T00:12:40.444Z,0.00
2023-08-14T00:13:40.434Z,0.00
2023-08-14T00:14:40.410Z,0.00
2023-08-14T00:15:40.468Z,0.00
2023-08-14T00:16:40.383Z,0.00
2023-08-14T00:17:40.409Z,0.00
2023-08-14T00:18:40.396Z,0.00
2023-08-14T00:19:40.351Z,0.00
2023-08-14T00:20:40.384Z,0.00
2023-08-14T00:21:40.335Z,0.00
2023-08-14T00:22:40.306Z,0.00
2023-08-14T00:23:40.299Z,0.00
2023-08-14T00:24:40.303Z,0.00
2023-08-14T00:25:40.278Z,0.00
2023-08-14T00:26:40.261Z,0.00
2023-08-14T00:27:40.253Z,0.00
2023-08-14T00:28:40.219Z,0.00
2023-08-14T00:29:40.238Z,0.00
2023-08-14T00:30:40.210Z,0.00
2023-08-14T00:31:40.218Z,0.00
2023-08-14T00:32:40.196Z,0.00
2023-08-14T00:33:40.216Z,0.00
2023-08-14T00:34:40.161Z,0.00
2023-08-14T00:35:40.130Z,0.00
2023-08-14T00:36:40.158Z,0.00
2023-08-14T00:37:40.195Z,0.00
2023-08-14T00:38:40.110Z,0.00
2023-08-14T00:39:40.081Z,0.00
2023-08-14T00:40:40.064Z,0.00
2023-08-14T00:41:40.058Z,0.00
2023-08-14T00:42:40.048Z,0.00
2023-08-14T00:43:40.046Z,0.00
2023-08-14T00:44:39.996Z,0.00
2023-08-14T00:45:46.208Z,0.00
2023-08-14T00:46:41.011Z,0.00
2023-08-14T00:47:40.024Z,0.00
2023-08-14T00:48:39.973Z,0.00
2023-08-14T00:49:39.949Z,0.00
2023-08-14T00:50:39.940Z,0.00
2023-08-14T00:51:39.939Z,0.00
2023-08-14T00:52:39.950Z,0.00
2023-08-14T00:53:39.907Z,0.00
2023-08-14T00:54:39.877Z,0.00
2023-08-14T00:55:39.894Z,0.00
2023-08-14T00:56:39.879Z,0.00
2023-08-14T00:57:39.861Z,0.00
2023-08-14T00:58:39.827Z,0.00
2023-08-14T00:59:39.853Z,0.00
2023-08-14T01:00:39.843Z,0.00
2023-08-14T01:01:39.819Z,0.00
2023-08-14T01:02:39.790Z,0.00
2023-08-14T01:03:39.766Z,0.00
2023-08-14T01:04:39.747Z,0.00
2023-08-14T01:05:39.748Z,0.00
2023-08-14T01:06:39.740Z,0.00
2023-08-14T01:07:39.723Z,0.00
2023-08-14T01:08:39.714Z,0.00
2023-08-14T01:09:39.706Z,0.00
2023-08-14T01:10:39.664Z,0.00
2023-08-14T01:11:39.706Z,0.00
2023-08-14T01:12:39.640Z,0.00
2023-08-14T01:13:39.647Z,0.00
2023-08-14T01:14:39.598Z,0.00
2023-08-14T01:15:39.655Z,0.00
2023-08-14T01:16:39.680Z,0.00
2023-08-14T01:17:39.593Z,0.00
2023-08-14T01:18:39.556Z,0.00
2023-08-14T01:19:39.555Z,0.00
2023-08-14T01:20:39.551Z,0.00
2023-08-14T01:21:39.525Z,0.00
2023-08-14T01:22:39.564Z,0.00
2023-08-14T01:23:39.491Z,0.00
2023-08-14T01:24:39.476Z,0.00
2023-08-14T01:25:39.500Z,0.00
2023-08-14T01:26:39.440Z,0.00
2023-08-14T01:27:39.446Z,0.00
2023-08-14T01:28:39.421Z,0.00
2023-08-14T01:29:39.475Z,0.00
2023-08-14T01:30:39.440Z,0.00
2023-08-14T01:31:39.383Z,0.00
2023-08-14T01:32:39.398Z,0.00
2023-08-14T01:33:39.356Z,0.00
2023-08-14T01:34:39.374Z,0.00
2023-08-14T01:35:39.346Z,0.00
2023-08-14T01:36:39.309Z,0.00
2023-08-14T01:37:39.324Z,0.00
2023-08-14T01:38:39.284Z,0.00
2023-08-14T01:39:39.303Z,0.00
2023-08-14T01:40:39.339Z,0.00
2023-08-14T01:41:39.252Z,0.00
2023-08-14T01:42:39.249Z,0.00
2023-08-14T01:43:39.254Z,0.00
2023-08-14T01:44:39.237Z,0.00
2023-08-14T01:45:39.210Z,0.00
2023-08-14T01:46:39.172Z,0.00
2023-08-14T01:47:39.209Z,0.00
2023-08-14T01:48:39.172Z,0.00
2023-08-14T01:49:39.167Z,0.00
2023-08-14T01:50:39.121Z,0.00
2023-08-14T01:51:39.112Z,0.00
2023-08-14T01:52:39.114Z,0.00
2023-08-14T01:53:39.125Z,0.00
2023-08-14T01:54:39.078Z,0.00
2023-08-14T01:55:39.070Z,0.00
2023-08-14T01:56:39.044Z,0.00
2023-08-14T01:57:39.063Z,0.00
2023-08-14T01:58:39.017Z,0.00
2023-08-14T01:59:39.012Z,0.00
2023-08-14T02:00:38.999Z,0.00
2023-08-14T02:01:39.001Z,0.00
2023-08-14T02:02:39.088Z,0.00
2023-08-14T02:03:39.048Z,0.00
2023-08-14T02:04:38.977Z,0.00
2023-08-14T02:05:38.933Z,0.00
2023-08-14T02:06:38.951Z,0.00
2023-08-14T02:07:38.931Z,0.00
2023-08-14T02:08:38.886Z,0.00
2023-08-14T02:09:38.895Z,0.00
2023-08-14T02:10:38.878Z,0.00
2023-08-14T02:11:38.867Z,0.00
2023-08-14T02:12:38.828Z,0.00
2023-08-14T02:13:38.818Z,0.00
2023-08-14T02:14:38.823Z,0.00
2023-08-14T02:15:38.828Z,0.00
2023-08-14T02:16:38.794Z,0.00
2023-08-14T02:17:38.805Z,0.00
2023-08-14T02:18:38.777Z,0.00
2023-08-14T02:19:38.752Z,0.00
2023-08-14T02:20:38.753Z,0.00
2023-08-14T02:21:38.741Z,0.00
2023-08-14T02:22:38.710Z,0.00
2023-08-14T02:23:38.706Z,0.00
2023-08-14T02:24:38.679Z,0.00
2023-08-14T02:25:38.683Z,0.00
2023-08-14T02:26:38.660Z,0.00
2023-08-14T02:27:38.651Z,0.00
2023-08-14T02:28:38.622Z,0.00
2023-08-14T02:29:38.635Z,0.00
2023-08-14T02:30:38.642Z,0.00
2023-08-14T02:31:38.656Z,0.00
2023-08-14T02:32:38.654Z,0.00
2023-08-14T02:33:38.593Z,0.00
2023-08-14T02:34:38.711Z,0.00
2023-08-14T02:35:38.544Z,0.00
2023-08-14T02:36:38.512Z,0.00
2023-08-14T02:37:38.520Z,0.00
2023-08-14T02:38:38.509Z,0.00
2023-08-14T02:39:38.528Z,0.00
2023-08-14T02:40:38.505Z,0.00
2023-08-14T02:41:38.463Z,0.00
2023-08-14T02:42:38.434Z,0.00
2023-08-14T02:43:38.436Z,0.00
2023-08-14T02:44:38.480Z,0.00
2023-08-14T02:45:38.428Z,0.00
2023-08-14T02:46:38.384Z,0.00
2023-08-14T02:47:38.452Z,0.00
2023-08-14T02:48:38.370Z,0.00
2023-08-14T02:49:38.378Z,0.00
2023-08-14T02:50:38.339Z,0.00
2023-08-14T02:51:38.336Z,0.00
2023-08-14T02:52:38.330Z,0.00
2023-08-14T02:53:38.305Z,0.00
2023-08-14T02:54:38.285Z,0.00
2023-08-14T02:55:38.263Z,0.00
2023-08-14T02:56:38.266Z,0.00
2023-08-14T02:57:38.246Z,0.00
2023-08-14T02:58:38.254Z,0.00
2023-08-14T02:59:38.271Z,0.00
2023-08-14T03:00:38.199Z,0.00
2023-08-14T03:01:38.186Z,0.00
2023-08-14T03:02:38.262Z,0.00
2023-08-14T03:03:38.223Z,0.00
2023-08-14T03:04:38.140Z,0.00
2023-08-14T03:05:38.137Z,0.00
2023-08-14T03:06:38.111Z,0.00
2023-08-14T03:07:38.124Z,0.00
2023-08-14T03:08:38.110Z,0.00
2023-08-14T03:09:38.077Z,0.00
2023-08-14T03:10:38.058Z,0.00
2023-08-14T03:11:38.087Z,0.00
2023-08-14T03:12:38.070Z,0.00
2023-08-14T03:13:38.023Z,0.00
2023-08-14T03:14:38.086Z,0.00
2023-08-14T03:15:38.004Z,0.00
2023-08-14T03:16:38.031Z,0.00
2023-08-14T03:17:38.045Z,0.00
2023-08-14T03:18:37.972Z,0.00
2023-08-14T03:19:37.950Z,0.00
2023-08-14T03:20:37.946Z,0.00
2023-08-14T03:21:37.936Z,0.00
2023-08-14T03:22:37.937Z,0.00
2023-08-14T03:23:37.920Z,0.00
2023-08-14T03:24:37.887Z,0.00
2023-08-14T03:25:37.866Z,0.00
2023-08-14T03:26:37.875Z,0.00
2023-08-14T03:27:37.846Z,0.00
2023-08-14T03:28:37.822Z,0.00
2023-08-14T03:29:37.806Z,0.00
2023-08-14T03:30:37.850Z,0.00
2023-08-14T03:31:37.778Z,0.00
2023-08-14T03:32:37.818Z,0.00
2023-08-14T03:33:37.801Z,0.00
2023-08-14T03:34:37.790Z,0.00
2023-08-14T03:35:37.722Z,0.00
2023-08-14T03:36:37.717Z,0.00
2023-08-14T03:37:37.723Z,0.00
2023-08-14T03:38:37.713Z,0.00
2023-08-14T03:39:37.684Z,0.00
2023-08-14T03:40:37.692Z,0.00
2023-08-14T03:41:37.671Z,0.00
2023-08-14T03:42:37.646Z,0.00
2023-08-14T03:43:37.667Z,0.00
2023-08-14T03:44:37.610Z,0.00
2023-08-14T03:45:37.629Z,0.00
2023-08-14T03:46:37.626Z,0.00
2023-08-14T03:47:37.625Z,0.00
2023-08-14T03:48:37.605Z,0.00
2023-08-14T03:49:37.576Z,0.00
2023-08-14T03:50:37.559Z,0.00
2023-08-14T03:51:37.537Z,0.00
2023-08-14T03:52:37.537Z,0.00
2023-08-14T03:53:37.496Z,0.00
2023-08-14T03:54:37.558Z,0.00
2023-08-14T03:55:37.482Z,0.00
2023-08-14T03:56:37.475Z,0.00
2023-08-14T03:57:37.459Z,0.00
2023-08-14T03:58:37.432Z,0.00
2023-08-14T03:59:37.406Z,0.00
2023-08-14T04:00:37.405Z,0.00
2023-08-14T04:01:37.463Z,0.00
2023-08-14T04:02:37.524Z,0.00
2023-08-14T04:03:37.468Z,0.00
2023-08-14T04:04:37.364Z,0.00
2023-08-14T04:05:37.332Z,0.00
2023-08-14T04:06:37.354Z,0.00
2023-08-14T04:07:37.332Z,0.00
2023-08-14T04:08:37.305Z,0.00
2023-08-14T04:09:37.282Z,0.00
2023-08-14T04:10:37.277Z,0.00
2023-08-14T04:11:37.274Z,0.00
2023-08-14T04:12:37.264Z,0.00
2023-08-14T04:13:37.224Z,0.00
2023-08-14T04:14:37.228Z,0.00
2023-08-14T04:15:37.235Z,0.00
2023-08-14T04:16:37.236Z,0.00
2023-08-14T04:17:37.223Z,0.00
2023-08-14T04:18:37.162Z,0.00
2023-08-14T04:19:37.148Z,0.00
2023-08-14T04:20:37.192Z,0.00
2023-08-14T04:21:37.114Z,0.00
2023-08-14T04:22:37.114Z,0.00
2023-08-14T04:23:37.090Z,0.00
2023-08-14T04:24:37.106Z,0.00
2023-08-14T04:25:37.109Z,0.00
2023-08-14T04:26:37.085Z,0.00
2023-08-14T04:27:37.045Z,0.00
2023-08-14T04:28:37.063Z,0.00
2023-08-14T04:29:37.042Z,0.00
2023-08-14T04:30:37.013Z,0.00
2023-08-14T04:31:37.063Z,0.00
2023-08-14T04:32:37.003Z,0.00
2023-08-14T04:33:36.998Z,0.00
2023-08-14T04:34:36.968Z,0.00
2023-08-14T04:35:37.239Z,0.00
2023-08-14T04:36:37.012Z,0.00
2023-08-14T04:37:36.946Z,0.00
2023-08-14T04:38:36.919Z,0.00
2023-08-14T04:39:36.892Z,0.00
2023-08-14T04:40:36.880Z,0.00
2023-08-14T04:41:36.871Z,0.00
2023-08-14T04:42:37.861Z,0.00
2023-08-14T04:43:36.859Z,0.00
2023-08-14T04:44:36.817Z,0.00
2023-08-14T04:45:36.841Z,0.00
2023-08-14T04:46:48.957Z,0.00
2023-08-14T04:47:37.793Z,0.00
2023-08-14T04:48:36.785Z,0.00
2023-08-14T04:49:36.777Z,0.00
2023-08-14T04:50:36.740Z,0.00
2023-08-14T04:51:36.730Z,0.00
2023-08-14T04:52:36.736Z,0.00
2023-08-14T04:53:36.701Z,0.00
2023-08-14T04:54:36.708Z,0.00
2023-08-14T04:55:36.659Z,0.00
2023-08-14T04:56:36.657Z,0.00
2023-08-14T04:57:36.646Z,0.00
2023-08-14T04:58:36.652Z,0.00
2023-08-14T04:59:36.655Z,0.00
2023-08-14T05:00:36.678Z,0.00
2023-08-14T05:01:36.624Z,0.00
2023-08-14T05:02:36.624Z,0.00
2023-08-14T05:03:36.564Z,0.00
2023-08-14T05:04:36.598Z,0.00
2023-08-14T05:05:36.541Z,0.00
2023-08-14T05:06:36.534Z,0.00
2023-08-14T05:07:36.504Z,0.00
2023-08-14T05:08:36.512Z,0.00
2023-08-14T05:09:36.478Z,0.00
2023-08-14T05:10:36.460Z,0.00
2023-08-14T05:11:36.446Z,0.00
2023-08-14T05:12:36.469Z,0.00
2023-08-14T05:13:36.438Z,0.00
2023-08-14T05:14:36.435Z,0.00
2023-08-14T05:15:36.414Z,0.00
2023-08-14T05:16:36.487Z,0.00
2023-08-14T05:17:36.471Z,0.00
2023-08-14T05:18:36.392Z,0.00
2023-08-14T05:19:36.366Z,0.00
2023-08-14T05:20:36.370Z,0.00
2023-08-14T05:21:36.321Z,0.00
2023-08-14T05:22:36.353Z,0.00
2023-08-14T05:23:36.351Z,0.00
2023-08-14T05:24:36.294Z,0.00
2023-08-14T05:25:36.266Z,0.00
2023-08-14T05:26:36.282Z,0.00
2023-08-14T05:27:36.263Z,0.00
2023-08-14T05:28:36.260Z,0.00
2023-08-14T05:29:36.202Z,0.00
2023-08-14T05:30:36.347Z,0.00
2023-08-14T05:31:36.227Z,0.00
2023-08-14T05:32:36.634Z,0.00
2023-08-14T05:33:36.820Z,0.00
2023-08-14T05:34:36.154Z,0.00
2023-08-14T05:35:36.149Z,0.00
2023-08-14T05:36:36.155Z,0.00
2023-08-14T05:37:36.153Z,0.00
2023-08-14T05:38:36.127Z,0.00
2023-08-14T05:39:36.064Z,0.00
2023-08-14T05:40:36.082Z,2.82
2023-08-14T05:41:36.079Z,4.53
2023-08-14T05:42:36.077Z,5.44
2023-08-14T05:43:36.038Z,5.74
2023-08-14T05:44:36.025Z,5.24
2023-08-14T05:45:36.113Z,6.96
2023-08-14T05:46:35.979Z,6.45
2023-08-14T05:47:36.017Z,6.45
2023-08-14T05:48:35.974Z,6.45
2023-08-14T05:49:35.948Z,8.87
2023-08-14T05:51:45.759Z,12.39
2023-08-14T05:52:45.731Z,9.97
2023-08-14T05:53:45.712Z,13.40
2023-08-14T05:54:47.352Z,14.20
2023-08-14T05:55:45.711Z,15.92
2023-08-14T05:56:45.664Z,18.13
2023-08-14T05:57:45.647Z,21.86
2023-08-14T05:58:45.707Z,19.45
2023-08-14T05:59:45.633Z,15.11
2023-08-14T06:00:45.664Z,14.40
2023-08-14T06:01:45.586Z,19.54
2023-08-14T06:02:45.629Z,20.84
2023-08-14T06:03:46.076Z,21.25
2023-08-14T06:04:45.589Z,26.28
2023-08-14T06:05:45.551Z,29.41
2023-08-14T06:06:45.597Z,30.91
2023-08-14T06:07:45.507Z,31.12
2023-08-14T06:08:45.542Z,29.41
2023-08-14T06:09:45.500Z,30.11
2023-08-14T06:10:45.492Z,30.21
2023-08-14T06:11:45.485Z,33.03
2023-08-14T06:12:45.455Z,32.73
2023-08-14T06:13:45.466Z,32.43
2023-08-14T06:14:45.446Z,32.53
2023-08-14T06:15:45.435Z,33.01
2023-08-14T06:16:45.465Z,30.19
2023-08-14T06:17:45.410Z,33.42
2023-08-14T06:18:45.389Z,33.72
2023-08-14T06:19:45.353Z,33.40
2023-08-14T06:20:45.339Z,31.89
2023-08-14T06:21:45.323Z,33.00
2023-08-14T06:22:45.336Z,33.00
2023-08-14T06:23:45.325Z,32.38
2023-08-14T06:24:45.304Z,34.89
2023-08-14T06:25:45.257Z,33.59
2023-08-14T06:26:45.265Z,33.89
2023-08-14T06:27:45.512Z,36.29
2023-08-14T06:28:45.244Z,36.18
2023-08-14T06:29:45.219Z,34.78
2023-08-14T06:30:45.240Z,36.29
2023-08-14T06:31:45.201Z,49.15
2023-08-14T06:32:45.285Z,47.66
2023-08-14T06:33:45.170Z,43.22
2023-08-14T06:34:45.150Z,44.83
2023-08-14T06:35:45.135Z,47.44
2023-08-14T06:36:45.135Z,48.55
2023-08-14T06:37:45.125Z,46.64
2023-08-14T06:38:45.107Z,42.72
2023-08-14T06:39:45.097Z,41.82
2023-08-14T06:40:45.065Z,41.09
2023-08-14T06:41:45.089Z,46.11
2023-08-14T06:42:45.035Z,48.12
2023-08-14T06:43:45.042Z,48.43
2023-08-14T06:44:45.005Z,56.26
2023-08-14T06:45:45.030Z,59.17
2023-08-14T06:46:45.024Z,50.63
2023-08-14T06:47:45.027Z,55.03
2023-08-14T06:48:44.978Z,53.22
2023-08-14T06:49:44.953Z,52.12
2023-08-14T06:50:44.997Z,50.71
2023-08-14T06:51:44.917Z,53.90
2023-08-14T06:52:44.911Z,54.30
2023-08-14T06:53:44.917Z,53.09
2023-08-14T06:54:44.886Z,56.08
2023-08-14T06:55:44.900Z,52.17
2023-08-14T06:56:44.837Z,51.46
2023-08-14T06:57:44.856Z,57.89
2023-08-14T06:58:44.834Z,54.17
2023-08-14T06:59:46.727Z,54.77
2023-08-14T07:00:44.856Z,56.78
2023-08-14T07:01:44.793Z,60.19
2023-08-14T07:02:44.864Z,57.89
2023-08-14T07:03:44.873Z,58.76
2023-08-14T07:04:44.753Z,59.16
2023-08-14T07:05:44.751Z,58.76
2023-08-14T07:06:44.723Z,58.76
2023-08-14T07:07:44.711Z,59.66
2023-08-14T07:08:44.701Z,63.28
2023-08-14T07:09:44.718Z,64.88
2023-08-14T07:10:44.672Z,62.17
2023-08-14T07:11:44.662Z,67.18
2023-08-14T07:12:44.632Z,70.83
2023-08-14T07:13:45.822Z,70.83
2023-08-14T07:14:46.264Z,72.74
2023-08-14T07:15:44.606Z,66.64
2023-08-14T07:16:44.618Z,63.43
2023-08-14T07:17:44.596Z,62.93
2023-08-14T07:18:44.565Z,64.34
2023-08-14T07:19:44.546Z,63.60
2023-08-14T07:20:44.533Z,65.01
2023-08-14T07:21:44.526Z,63.60
2023-08-14T07:22:44.540Z,60.60
2023-08-14T07:23:44.513Z,59.39
2023-08-14T07:24:44.472Z,58.99
2023-08-14T07:25:44.471Z,60.89
2023-08-14T07:26:44.441Z,62.70
2023-08-14T07:27:44.448Z,62.50
2023-08-14T07:28:44.437Z,70.32
2023-08-14T07:29:45.150Z,72.63
2023-08-14T07:30:44.433Z,71.33
2023-08-14T07:31:44.413Z,69.42
2023-08-14T07:32:44.418Z,70.32
2023-08-14T07:33:44.356Z,71.93
2023-08-14T07:34:44.341Z,71.73
2023-08-14T07:35:44.348Z,70.73
2023-08-14T07:36:44.325Z,71.33
2023-08-14T07:37:44.323Z,72.00
2023-08-14T07:38:44.278Z,70.39
2023-08-14T07:39:44.264Z,70.59
2023-08-14T07:40:44.248Z,66.78
2023-08-14T07:41:44.254Z,65.28
2023-08-14T07:42:44.235Z,65.85
2023-08-14T07:43:44.226Z,67.45
2023-08-14T07:44:44.196Z,68.85
2023-08-14T07:45:44.214Z,70.96
2023-08-14T07:46:44.193Z,72.53
2023-08-14T07:47:44.217Z,72.93
2023-08-14T07:48:44.143Z,75.04
2023-08-14T07:49:44.158Z,75.40
2023-08-14T07:50:44.148Z,76.60
2023-08-14T07:51:44.124Z,75.20
2023-08-14T07:52:44.089Z,76.40
2023-08-14T07:53:44.110Z,76.90
2023-08-14T07:54:44.064Z,79.60
2023-08-14T07:55:44.076Z,79.85
2023-08-14T07:56:46.591Z,80.74
2023-08-14T07:57:44.028Z,76.04
2023-08-14T07:58:44.000Z,74.84
2023-08-14T07:59:44.031Z,73.43
2023-08-14T08:00:44.006Z,75.54
2023-08-14T08:01:44.057Z,72.93
2023-08-14T08:02:43.975Z,71.23
2023-08-14T08:03:43.955Z,71.73
2023-08-14T08:04:43.946Z,73.43
2023-08-14T08:05:44.019Z,74.73
2023-08-14T08:06:44.873Z,75.43
2023-08-14T08:07:43.889Z,73.43
2023-08-14T08:08:45.885Z,74.84
2023-08-14T08:09:43.881Z,73.73
2023-08-14T08:10:43.836Z,72.33
2023-08-14T08:11:43.842Z,72.53
2023-08-14T08:12:43.828Z,73.00
2023-08-14T08:13:43.907Z,74.90
2023-08-14T08:14:43.808Z,77.50
2023-08-14T08:15:43.817Z,78.10
2023-08-14T08:16:43.772Z,76.50
2023-08-14T08:17:43.768Z,79.21
2023-08-14T08:18:43.752Z,78.44
2023-08-14T08:19:43.755Z,76.04
2023-08-14T08:20:43.732Z,77.44
2023-08-14T08:21:43.698Z,76.10
2023-08-14T08:22:43.702Z,77.70
2023-08-14T08:23:43.679Z,78.00
2023-08-14T08:24:43.648Z,80.11
2023-08-14T08:25:43.660Z,81.47
2023-08-14T08:26:43.648Z,79.36
2023-08-14T08:27:43.625Z,81.57
2023-08-14T08:28:43.609Z,78.47
2023-08-14T08:29:43.587Z,85.97
2023-08-14T08:30:43.589Z,80.83
2023-08-14T08:31:43.614Z,84.33
2023-08-14T08:32:43.570Z,85.93
2023-08-14T08:33:43.531Z,85.83
2023-08-14T08:34:43.511Z,85.53
2023-08-14T08:35:43.522Z,87.03
2023-08-14T08:36:43.490Z,87.83
2023-08-14T08:37:43.497Z,88.83
2023-08-14T08:38:43.467Z,87.83
2023-08-14T08:39:43.465Z,85.23
2023-08-14T08:40:43.438Z,85.03
2023-08-14T08:41:43.434Z,82.03
2023-08-14T08:42:43.405Z,84.83
2023-08-14T08:43:43.410Z,83.77
2023-08-14T08:44:43.390Z,82.07
2023-08-14T08:45:43.408Z,82.13
2023-08-14T08:46:44.469Z,82.33
2023-08-14T08:47:43.374Z,82.63
2023-08-14T08:48:43.320Z,83.43
2023-08-14T08:49:44.340Z,80.59
2023-08-14T08:50:45.665Z,80.49
2023-08-14T08:51:43.325Z,79.09
2023-08-14T08:52:43.285Z,80.29
2023-08-14T08:53:43.275Z,83.09
2023-08-14T08:54:43.256Z,83.49
2023-08-14T08:55:43.261Z,82.39
2023-08-14T08:56:43.206Z,82.05
2023-08-14T08:57:43.210Z,81.15
2023-08-14T08:58:43.193Z,86.35
2023-08-14T08:59:43.186Z,85.11
2023-08-14T09:00:43.191Z,90.61
2023-08-14T09:01:43.250Z,88.51
2023-08-14T09:02:47.073Z,90.00
2023-08-14T09:03:43.258Z,90.50
2023-08-14T09:04:43.189Z,89.61
2023-08-14T09:05:43.117Z,88.17
2023-08-14T09:06:43.086Z,88.56
2023-08-14T09:07:43.108Z,88.26
2023-08-14T09:08:43.063Z,88.56
2023-08-14T09:09:43.056Z,86.36
2023-08-14T09:10:43.023Z,88.17
2023-08-14T09:11:43.028Z,88.96
2023-08-14T09:12:43.005Z,86.87
2023-08-14T09:13:42.998Z,85.03
2023-08-14T09:14:42.990Z,86.52
2023-08-14T09:15:42.965Z,87.73
2023-08-14T09:16:42.947Z,88.52
2023-08-14T09:17:42.964Z,89.32
2023-08-14T09:18:42.935Z,87.73
2023-08-14T09:19:42.947Z,88.42
2023-08-14T09:20:42.891Z,89.32
2023-08-14T09:21:42.911Z,86.58
2023-08-14T09:22:42.871Z,85.99
2023-08-14T09:23:42.867Z,87.28
2023-08-14T09:24:42.844Z,92.97
2023-08-14T09:25:42.833Z,91.97
2023-08-14T09:26:42.819Z,90.97
2023-08-14T09:27:42.867Z,91.37
2023-08-14T09:28:42.814Z,90.67
2023-08-14T09:29:42.782Z,90.33
2023-08-14T09:30:42.767Z,92.52
2023-08-14T09:31:42.788Z,93.82
2023-08-14T09:32:42.791Z,90.89
2023-08-14T09:33:42.729Z,91.49
2023-08-14T09:34:42.701Z,94.63
2023-08-14T09:35:42.715Z,94.33
2023-08-14T09:36:42.672Z,95.77
2023-08-14T09:37:42.710Z,95.07
2023-08-14T09:38:42.655Z,92.54
2023-08-14T09:39:42.646Z,95.83
2023-08-14T09:40:42.638Z,93.33
2023-08-14T09:41:42.633Z,96.12
2023-08-14T09:42:42.626Z,96.08
2023-08-14T09:43:42.585Z,96.17
2023-08-14T09:44:42.576Z,95.87
2023-08-14T09:45:42.585Z,96.08
2023-08-14T09:46:42.601Z,95.87
2023-08-14T09:47:42.687Z,93.99
2023-08-14T09:48:42.560Z,96.03
2023-08-14T09:49:42.524Z,95.83
2023-08-14T09:50:42.492Z,92.05
2023-08-14T09:51:42.512Z,93.94
2023-08-14T09:52:42.477Z,95.43
2023-08-14T09:53:42.456Z,95.63
2023-08-14T09:54:42.435Z,95.03
2023-08-14T09:55:42.474Z,92.74
2023-08-14T09:56:42.415Z,95.38
2023-08-14T09:57:42.390Z,96.08
2023-08-14T09:58:42.382Z,93.19
2023-08-14T09:59:42.376Z,94.78
2023-08-14T10:00:42.439Z,94.28
2023-08-14T10:01:42.343Z,95.48
2023-08-14T10:02:42.486Z,95.58
2023-08-14T10:03:42.315Z,94.24
2023-08-14T10:04:42.308Z,92.05
2023-08-14T10:05:42.325Z,93.04
2023-08-14T10:06:42.267Z,87.57
2023-08-14T10:07:42.291Z,81.40
2023-08-14T10:08:42.250Z,86.68
2023-08-14T10:09:42.242Z,87.43
2023-08-14T10:10:44.849Z,87.73
2023-08-14T10:11:43.202Z,81.46
2023-08-14T10:12:42.199Z,84.84
2023-08-14T10:13:42.248Z,87.43
2023-08-14T10:14:42.180Z,88.62
2023-08-14T10:15:42.169Z,84.01
2023-08-14T10:16:42.178Z,80.63
2023-08-14T10:17:42.168Z,81.92
2023-08-14T10:18:42.115Z,83.71
2023-08-14T10:19:42.127Z,81.78
2023-08-14T10:20:42.092Z,83.37
2023-08-14T10:21:42.107Z,86.71
2023-08-14T10:22:42.059Z,78.49
2023-08-14T10:23:42.065Z,76.33
2023-08-14T10:24:42.047Z,67.38
2023-08-14T10:25:42.013Z,65.13
2023-08-14T10:26:42.030Z,60.06
2023-08-14T10:27:42.014Z,59.90
2023-08-14T10:28:41.990Z,58.88
2023-08-14T10:29:41.988Z,56.85
2023-08-14T10:30:41.985Z,54.26
2023-08-14T10:31:41.937Z,54.13
2023-08-14T10:32:41.920Z,53.91
2023-08-14T10:33:41.930Z,54.08
2023-08-14T10:34:41.908Z,53.49
2023-08-14T10:35:41.914Z,52.50
2023-08-14T10:36:41.871Z,51.79
2023-08-14T10:37:41.877Z,51.67
2023-08-14T10:38:41.880Z,51.15
2023-08-14T10:39:41.849Z,50.14
2023-08-14T10:40:41.837Z,48.05
2023-08-14T10:41:41.809Z,49.01
2023-08-14T10:42:41.805Z,50.29
2023-08-14T10:43:41.793Z,50.39
2023-08-14T10:44:41.768Z,51.05
2023-08-14T10:45:41.760Z,51.12
2023-08-14T10:46:41.837Z,49.33
2023-08-14T10:47:41.769Z,50.12
2023-08-14T10:48:41.721Z,50.19
2023-08-14T10:49:41.717Z,48.50
2023-08-14T10:50:41.690Z,48.60
2023-08-14T10:51:41.697Z,49.85
2023-08-14T10:52:41.660Z,48.94
2023-08-14T10:53:41.648Z,50.12
2023-08-14T10:54:41.657Z,49.11
2023-08-14T10:55:41.629Z,47.52
2023-08-14T10:56:41.635Z,46.66
2023-08-14T10:57:41.599Z,46.37
2023-08-14T10:58:41.602Z,47.96
2023-08-14T10:59:41.568Z,46.88
2023-08-14T11:00:42.478Z,48.77
2023-08-14T11:01:41.634Z,48.23
2023-08-14T11:02:41.556Z,46.17
2023-08-14T11:03:41.517Z,46.15
2023-08-14T11:04:41.531Z,46.52
2023-08-14T11:05:41.558Z,45.93
2023-08-14T11:06:41.493Z,44.76
2023-08-14T11:07:41.486Z,44.83
2023-08-14T11:08:41.454Z,43.58
2023-08-14T11:09:41.535Z,43.88
2023-08-14T11:10:41.451Z,44.17
2023-08-14T11:11:41.418Z,44.15
2023-08-14T11:12:41.408Z,44.24
2023-08-14T11:13:41.393Z,43.98
2023-08-14T11:14:41.423Z,44.58
2023-08-14T11:15:41.396Z,43.51
2023-08-14T11:16:41.385Z,44.16
2023-08-14T11:17:41.387Z,46.66
2023-08-14T11:18:41.334Z,45.57
2023-08-14T11:19:41.337Z,46.53
2023-08-14T11:20:41.308Z,45.12
2023-08-14T11:21:41.290Z,45.56
2023-08-14T11:22:41.284Z,45.44
2023-08-14T11:23:41.274Z,44.48
2023-08-14T11:24:41.291Z,45.47
2023-08-14T11:25:41.239Z,44.73
2023-08-14T11:26:41.250Z,43.27
2023-08-14T11:27:41.216Z,43.54
2023-08-14T11:28:41.236Z,43.27
2023-08-14T11:30:41.184Z,43.23
2023-08-14T11:31:42.048Z,42.91
2023-08-14T11:32:42.232Z,44.29
2023-08-14T11:33:41.164Z,45.07
2023-08-14T11:34:41.142Z,44.77
2023-08-14T11:35:41.117Z,44.37
2023-08-14T11:36:41.134Z,46.24
2023-08-14T11:37:41.133Z,45.83
2023-08-14T11:38:41.099Z,46.98
2023-08-14T11:39:41.066Z,45.51
2023-08-14T11:40:41.066Z,45.37
2023-08-14T11:41:41.046Z,45.78
2023-08-14T11:42:41.065Z,45.98
2023-08-14T11:43:46.491Z,45.07
2023-08-14T11:44:42.010Z,46.42
2023-08-14T11:45:40.995Z,44.17
2023-08-14T11:46:40.976Z,46.17
2023-08-14T11:47:41.038Z,47.72
2023-08-14T11:48:40.953Z,46.81
2023-08-14T11:49:40.930Z,46.79
2023-08-14T11:50:40.923Z,44.81
2023-08-14T11:51:47.968Z,44.81
2023-08-14T11:52:40.914Z,44.56
2023-08-14T11:53:40.882Z,45.93
2023-08-14T11:54:40.879Z,44.76
2023-08-14T11:55:40.863Z,46.42
2023-08-14T11:56:40.874Z,45.69
2023-08-14T11:57:40.836Z,45.47
2023-08-14T11:58:42.084Z,45.06
2023-08-14T11:59:40.800Z,44.77
2023-08-14T12:00:40.807Z,44.35
2023-08-14T12:01:40.874Z,43.18
2023-08-14T12:02:40.807Z,43.96
2023-08-14T12:03:40.769Z,44.24
2023-08-14T12:04:40.773Z,43.18
2023-08-14T12:05:40.956Z,44.06
2023-08-14T12:06:40.750Z,44.16
2023-08-14T12:07:40.727Z,44.65
2023-08-14T12:08:40.699Z,44.26
2023-08-14T12:09:40.697Z,44.65
2023-08-14T12:10:40.698Z,43.16
2023-08-14T12:11:40.667Z,44.16
2023-08-14T12:12:48.714Z,44.63
2023-08-14T12:13:41.638Z,45.26
2023-08-14T12:14:40.646Z,44.87
2023-08-14T12:15:40.678Z,44.69
2023-08-14T12:16:40.732Z,43.71
2023-08-14T12:17:40.655Z,43.91
2023-08-14T12:18:40.639Z,46.82
2023-08-14T12:19:40.576Z,45.45
2023-08-14T12:20:40.554Z,46.21
2023-08-14T12:21:40.586Z,44.73
2023-08-14T12:22:42.677Z,44.73
2023-08-14T12:23:40.506Z,44.53
2023-08-14T12:24:40.524Z,44.55
2023-08-14T12:25:40.500Z,44.79
2023-08-14T12:26:40.468Z,46.81
2023-08-14T12:27:40.462Z,47.38
2023-08-14T12:28:40.480Z,45.34
2023-08-14T12:29:40.498Z,45.15
2023-08-14T12:30:40.427Z,45.66
2023-08-14T12:31:40.442Z,45.86
2023-08-14T12:32:40.436Z,47.03
2023-08-14T12:33:40.416Z,46.15
2023-08-14T12:34:40.373Z,47.42
2023-08-14T12:35:40.363Z,47.72
2023-08-14T12:36:40.353Z,0.00
2023-08-14T12:37:40.354Z,46.67
2023-08-14T12:38:40.353Z,0.00
2023-08-14T12:39:40.304Z,47.45
2023-08-14T12:40:40.318Z,47.43
2023-08-14T12:41:40.294Z,0.00
2023-08-14T12:42:40.323Z,0.00
2023-08-14T12:43:41.170Z,46.53
2023-08-14T12:44:40.265Z,43.87
2023-08-14T12:45:40.227Z,45.90
2023-08-14T12:46:40.278Z,46.19
2023-08-14T12:47:40.311Z,45.00
2023-08-14T12:48:40.235Z,44.51
2023-08-14T12:49:40.212Z,45.04
2023-08-14T12:50:40.183Z,45.23
2023-08-14T12:51:40.160Z,46.06
2023-08-14T12:52:40.244Z,46.94
2023-08-14T12:53:40.134Z,46.97
2023-08-14T12:54:40.309Z,48.21
2023-08-14T12:55:40.122Z,48.70
2023-08-14T12:56:40.799Z,47.60
2023-08-14T12:57:40.099Z,46.16
2023-08-14T12:58:40.074Z,46.26
2023-08-14T12:59:40.049Z,0.00
2023-08-14T13:00:40.086Z,47.45
2023-08-14T13:01:40.077Z,48.94
2023-08-14T13:02:40.091Z,49.90
2023-08-14T13:03:40.041Z,49.73
2023-08-14T13:05:39.997Z,49.24
2023-08-14T13:06:39.992Z,48.52
2023-08-14T13:07:39.968Z,49.73